Observations for GUERNSEY AIRPORT, United Kingdom (EGJB)

EGJB 182050Z 08018KT 9999 FEW016 09/06 Q1019
EGJB 182020Z 08019G29KT 9999 FEW016 10/06 Q1019 
EGJB 181950Z 08018KT 9999 FEW016 10/06 Q1019
EGJB 181920Z 07018KT 9999 FEW016 10/06 Q1019
EGJB 181850Z 07018G30KT 9999 FEW016 09/05 Q1019 
EGJB 181820Z 07019G30KT 9999 FEW016 09/05 Q1019 
EGJB 181750Z 07016G26KT 9999 FEW018 09/05 Q1020 
EGJB 181720Z 07016G26KT 9999 FEW016 09/05 Q1020 
EGJB 181650Z 07018KT 9999 FEW016 09/05 Q1019
EGJB 181620Z 07016KT 9999 FEW016 09/04 Q1020
EGJB 181550Z 07018KT 9999 FEW016 09/04 Q1020
EGJB 181520Z 07019KT 9999 FEW018 09/03 Q1019
EGJB 181450Z 07017KT 9999 FEW018 09/03 Q1020
EGJB 181420Z 07017KT 9999 FEW020 09/02 Q1019
EGJB 181350Z 07014KT 9999 FEW020 09/02 Q1020
EGJB 181320Z 08015KT 9999 FEW018 10/03 Q1020
EGJB 181250Z 08014KT 9999 FEW018 10/04 Q1021
EGJB 181220Z 08012KT 9999 FEW018 10/04 Q1021
EGJB 181150Z 09013KT 9999 FEW018 10/04 Q1021
EGJB 181120Z 09012KT 9999 FEW018 10/04 Q1021
EGJB 181050Z 09013KT 9999 FEW018 09/04 Q1021
EGJB 181020Z 08013KT 9999 FEW012 09/04 Q1021
EGJB 180950Z 08016KT 9999 FEW012 09/04 Q1022
EGJB 180920Z 08015KT 9999 FEW012 09/05 Q1021
EGJB 180850Z 08014KT 9999 FEW012 08/05 Q1021
EGJB 180820Z 08013KT 9999 FEW010 08/05 Q1022
EGJB 180750Z 09015G25KT 9999 FEW010 08/05 Q1022 
EGJB 180720Z 09014KT 9999 FEW014 07/05 Q1021
EGJB 180650Z 08017KT 9999 FEW014 08/05 Q1021
EGJB 180620Z 08014KT 9999 FEW014 08/05 Q1021
EGJB 180550Z 08016KT 9999 FEW018 08/05 Q1021
EGJB 180520Z 08014KT 9999 FEW019 08/05 Q1021
EGJB 180450Z 08015KT 9999 FEW019 08/05 Q1020
EGJB 180420Z 08017KT 9999 FEW019 08/05 Q1020
EGJB 180350Z 08014KT 9999 FEW019 08/05 Q1020
EGJB 180250Z 09018KT 9999 FEW019 07/04 Q1021
EGJB 180150Z 10015KT 9999 FEW019 07/03 Q1021
EGJB 180050Z 10018KT 9999 FEW018 07/03 Q1021
EGJB 172350Z 10019KT 9999 FEW007 07/03 Q1021
EGJB 172320Z 10016KT 9999 FEW007 06/03 Q1021
EGJB 172150Z 11021KT 9999 FEW016 07/03 Q1021
EGJB 172050Z 10026KT 9999 FEW015 07/03 Q1021
EGJB 172020Z 10024KT 9999 FEW015 07/04 Q1021